sensor_id;sensor_type;location;lat;lon;timestamp;pressure;altitude;pressure_sealevel;temperature
79053;BMP280;68451;49.510;6.026;2023-06-26T00:02:17;97972.91;;;18.92
79053;BMP280;68451;49.510;6.026;2023-06-26T00:04:43;97962.13;;;18.78
79053;BMP280;68451;49.510;6.026;2023-06-26T00:07:09;97996.69;;;18.97
79053;BMP280;68451;49.510;6.026;2023-06-26T00:09:34;97972.94;;;18.82
79053;BMP280;68451;49.510;6.026;2023-06-26T00:12:00;98005.13;;;18.99
79053;BMP280;68451;49.510;6.026;2023-06-26T00:14:26;98010.38;;;19.04
79053;BMP280;68451;49.510;6.026;2023-06-26T00:16:52;97962.19;;;18.68
79053;BMP280;68451;49.510;6.026;2023-06-26T00:19:18;98007.00;;;18.93
79053;BMP280;68451;49.510;6.026;2023-06-26T00:21:44;97984.09;;;18.78
79053;BMP280;68451;49.510;6.026;2023-06-26T00:24:12;97956.44;;;18.51
79053;BMP280;68451;49.510;6.026;2023-06-26T00:26:38;98008.94;;;18.77
79053;BMP280;68451;49.510;6.026;2023-06-26T00:29:04;97981.81;;;18.52
79053;BMP280;68451;49.510;6.026;2023-06-26T00:31:30;97988.66;;;18.63
79053;BMP280;68451;49.510;6.026;2023-06-26T00:33:55;97986.31;;;18.56
79053;BMP280;68451;49.510;6.026;2023-06-26T00:36:20;97958.44;;;18.25
79053;BMP280;68451;49.510;6.026;2023-06-26T00:38:49;98010.63;;;18.48
79053;BMP280;68451;49.510;6.026;2023-06-26T00:41:15;97983.81;;;18.21
79053;BMP280;68451;49.510;6.026;2023-06-26T00:43:40;98008.84;;;18.33
79053;BMP280;68451;49.510;6.026;2023-06-26T00:46:09;97995.94;;;18.27
79053;BMP280;68451;49.510;6.026;2023-06-26T00:48:36;97939.53;;;17.82
79053;BMP280;68451;49.510;6.026;2023-06-26T00:51:02;97913.69;;;17.69
79053;BMP280;68451;49.510;6.026;2023-06-26T00:53:28;97960.09;;;18.01
79053;BMP280;68451;49.510;6.026;2023-06-26T00:55:54;97817.47;;;17.01
79053;BMP280;68451;49.510;6.026;2023-06-26T00:58:22;97826.72;;;17.04
79053;BMP280;68451;49.510;6.026;2023-06-26T01:00:49;97954.31;;;17.88
79053;BMP280;68451;49.510;6.026;2023-06-26T01:03:14;98006.00;;;18.15
79053;BMP280;68451;49.510;6.026;2023-06-26T01:05:40;97996.28;;;17.95
79053;BMP280;68451;49.510;6.026;2023-06-26T01:08:06;97992.88;;;17.84
79053;BMP280;68451;49.510;6.026;2023-06-26T01:10:33;97961.22;;;17.59
79053;BMP280;68451;49.510;6.026;2023-06-26T01:12:58;97967.59;;;17.58
79053;BMP280;68451;49.510;6.026;2023-06-26T01:15:24;97985.50;;;17.76
79053;BMP280;68451;49.510;6.026;2023-06-26T01:17:50;98001.84;;;17.88
79053;BMP280;68451;49.510;6.026;2023-06-26T01:20:17;97988.41;;;17.80
79053;BMP280;68451;49.510;6.026;2023-06-26T01:22:50;98005.53;;;17.93
79053;BMP280;68451;49.510;6.026;2023-06-26T01:25:35;97928.47;;;17.50
79053;BMP280;68451;49.510;6.026;2023-06-26T01:28:05;97952.50;;;17.69
79053;BMP280;68451;49.510;6.026;2023-06-26T01:30:39;98001.03;;;17.98
79053;BMP280;68451;49.510;6.026;2023-06-26T01:33:05;97982.56;;;17.88
79053;BMP280;68451;49.510;6.026;2023-06-26T01:35:31;97868.38;;;17.12
79053;BMP280;68451;49.510;6.026;2023-06-26T01:38:12;97997.88;;;17.96
79053;BMP280;68451;49.510;6.026;2023-06-26T01:40:39;97996.81;;;17.92
79053;BMP280;68451;49.510;6.026;2023-06-26T01:43:06;98005.00;;;17.90
79053;BMP280;68451;49.510;6.026;2023-06-26T01:45:35;97933.78;;;17.45
79053;BMP280;68451;49.510;6.026;2023-06-26T01:48:02;97998.69;;;17.81
79053;BMP280;68451;49.510;6.026;2023-06-26T01:50:30;97973.88;;;17.52
79053;BMP280;68451;49.510;6.026;2023-06-26T01:53:10;98017.47;;;17.70
79053;BMP280;68451;49.510;6.026;2023-06-26T01:55:45;98019.84;;;17.61
79053;BMP280;68451;49.510;6.026;2023-06-26T01:58:13;98000.81;;;17.44
79053;BMP280;68451;49.510;6.026;2023-06-26T02:00:40;98012.44;;;17.38
79053;BMP280;68451;49.510;6.026;2023-06-26T02:03:05;98028.00;;;17.39
79053;BMP280;68451;49.510;6.026;2023-06-26T02:05:32;97985.50;;;17.11
79053;BMP280;68451;49.510;6.026;2023-06-26T02:07:58;97978.91;;;16.98
79053;BMP280;68451;49.510;6.026;2023-06-26T02:10:23;97984.97;;;17.04
79053;BMP280;68451;49.510;6.026;2023-06-26T02:12:49;98006.59;;;17.16
79053;BMP280;68451;49.510;6.026;2023-06-26T02:15:14;97998.44;;;17.12
79053;BMP280;68451;49.510;6.026;2023-06-26T02:17:40;97885.22;;;16.45
79053;BMP280;68451;49.510;6.026;2023-06-26T02:20:06;97955.69;;;16.90
79053;BMP280;68451;49.510;6.026;2023-06-26T02:22:33;98021.41;;;17.22
79053;BMP280;68451;49.510;6.026;2023-06-26T02:24:58;97999.22;;;17.13
79053;BMP280;68451;49.510;6.026;2023-06-26T02:27:24;97898.38;;;16.50
79053;BMP280;68451;49.510;6.026;2023-06-26T02:29:49;97912.69;;;16.64
79053;BMP280;68451;49.510;6.026;2023-06-26T02:32:15;97987.38;;;17.05
79053;BMP280;68451;49.510;6.026;2023-06-26T02:34:40;97960.94;;;16.80
79053;BMP280;68451;49.510;6.026;2023-06-26T02:37:06;97991.81;;;16.89
79053;BMP280;68451;49.510;6.026;2023-06-26T02:39:33;97942.94;;;16.56
79053;BMP280;68451;49.510;6.026;2023-06-26T02:41:59;98012.41;;;17.08
79053;BMP280;68451;49.510;6.026;2023-06-26T02:44:24;98034.59;;;17.22
79053;BMP280;68451;49.510;6.026;2023-06-26T02:46:50;98024.03;;;17.22
79053;BMP280;68451;49.510;6.026;2023-06-26T02:49:15;97901.00;;;16.40
79053;BMP280;68451;49.510;6.026;2023-06-26T02:51:41;97874.06;;;16.12
79053;BMP280;68451;49.510;6.026;2023-06-26T02:54:06;98027.16;;;16.93
79053;BMP280;68451;49.510;6.026;2023-06-26T02:56:32;98014.47;;;16.85
79053;BMP280;68451;49.510;6.026;2023-06-26T02:58:57;98034.56;;;17.07
79053;BMP280;68451;49.510;6.026;2023-06-26T03:01:23;97978.34;;;16.81
79053;BMP280;68451;49.510;6.026;2023-06-26T03:03:49;98035.09;;;17.24
79053;BMP280;68451;49.510;6.026;2023-06-26T03:06:15;98009.50;;;17.24
79053;BMP280;68451;49.510;6.026;2023-06-26T03:08:40;98033.00;;;17.51
79053;BMP280;68451;49.510;6.026;2023-06-26T03:11:07;98037.53;;;17.61
79053;BMP280;68451;49.510;6.026;2023-06-26T03:13:34;97983.94;;;17.40
79053;BMP280;68451;49.510;6.026;2023-06-26T03:16:00;98005.59;;;17.67
79053;BMP280;68451;49.510;6.026;2023-06-26T03:18:25;97945.94;;;17.31
79053;BMP280;68451;49.510;6.026;2023-06-26T03:20:51;98021.38;;;17.93
79053;BMP280;68451;49.510;6.026;2023-06-26T03:23:19;98054.38;;;18.15
79053;BMP280;68451;49.510;6.026;2023-06-26T03:25:45;97935.59;;;17.55
79053;BMP280;68451;49.510;6.026;2023-06-26T03:28:11;98054.31;;;18.30
79053;BMP280;68451;49.510;6.026;2023-06-26T03:30:37;98034.75;;;18.26
79053;BMP280;68451;49.510;6.026;2023-06-26T03:33:02;98032.34;;;18.35
79053;BMP280;68451;49.510;6.026;2023-06-26T03:35:28;98054.00;;;18.52
79053;BMP280;68451;49.510;6.026;2023-06-26T03:37:53;98027.59;;;18.42
79053;BMP280;68451;49.510;6.026;2023-06-26T03:40:19;98053.47;;;18.60
79053;BMP280;68451;49.510;6.026;2023-06-26T03:42:45;98019.69;;;18.37
79053;BMP280;68451;49.510;6.026;2023-06-26T03:45:10;98013.06;;;18.40
79053;BMP280;68451;49.510;6.026;2023-06-26T03:47:36;98066.09;;;18.73
79053;BMP280;68451;49.510;6.026;2023-06-26T03:50:01;98057.66;;;18.66
79053;BMP280;68451;49.510;6.026;2023-06-26T03:52:27;97975.34;;;18.19
79053;BMP280;68451;49.510;6.026;2023-06-26T03:54:52;98028.63;;;18.56
79053;BMP280;68451;49.510;6.026;2023-06-26T03:57:18;98077.66;;;18.88
79053;BMP280;68451;49.510;6.026;2023-06-26T03:59:43;98069.75;;;18.88
79053;BMP280;68451;49.510;6.026;2023-06-26T04:02:08;98051.75;;;18.85
79053;BMP280;68451;49.510;6.026;2023-06-26T04:04:34;97973.16;;;18.36
79053;BMP280;68451;49.510;6.026;2023-06-26T04:06:59;98071.00;;;19.00
79053;BMP280;68451;49.510;6.026;2023-06-26T04:09:25;98095.03;;;19.09
79053;BMP280;68451;49.510;6.026;2023-06-26T04:11:51;97985.31;;;18.42
79053;BMP280;68451;49.510;6.026;2023-06-26T04:14:17;98095.03;;;19.04
79053;BMP280;68451;49.510;6.026;2023-06-26T04:16:43;98036.44;;;18.76
79053;BMP280;68451;49.510;6.026;2023-06-26T04:19:08;98072.31;;;18.98
79053;BMP280;68451;49.510;6.026;2023-06-26T04:21:35;98103.50;;;19.06
79053;BMP280;68451;49.510;6.026;2023-06-26T04:24:01;98077.09;;;18.96
79053;BMP280;68451;49.510;6.026;2023-06-26T04:26:26;98089.78;;;18.99
79053;BMP280;68451;49.510;6.026;2023-06-26T04:28:53;98089.78;;;18.99
79053;BMP280;68451;49.510;6.026;2023-06-26T04:31:19;98100.78;;;19.16
79053;BMP280;68451;49.510;6.026;2023-06-26T04:33:44;98105.25;;;19.20
79053;BMP280;68451;49.510;6.026;2023-06-26T04:36:10;98045.38;;;18.91
79053;BMP280;68451;49.510;6.026;2023-06-26T04:38:36;98077.00;;;19.11
79053;BMP280;68451;49.510;6.026;2023-06-26T04:41:02;98107.28;;;19.44
79053;BMP280;68451;49.510;6.026;2023-06-26T04:43:28;98130.13;;;19.68
79053;BMP280;68451;49.510;6.026;2023-06-26T04:45:53;98134.56;;;19.78
79053;BMP280;68451;49.510;6.026;2023-06-26T04:48:19;97980.22;;;19.05
79053;BMP280;68451;49.510;6.026;2023-06-26T04:50:45;98119.13;;;19.90
79053;BMP280;68451;49.510;6.026;2023-06-26T04:53:17;98132.53;;;20.04
79053;BMP280;68451;49.510;6.026;2023-06-26T04:55:43;98141.19;;;20.09
79053;BMP280;68451;49.510;6.026;2023-06-26T04:58:08;98008.53;;;19.38
79053;BMP280;68451;49.510;6.026;2023-06-26T05:00:34;98108.03;;;20.17
79053;BMP280;68451;49.510;6.026;2023-06-26T05:03:01;98062.16;;;19.88
79053;BMP280;68451;49.510;6.026;2023-06-26T05:05:27;98073.44;;;20.03
79053;BMP280;68451;49.510;6.026;2023-06-26T05:07:55;98125.16;;;20.53
79053;BMP280;68451;49.510;6.026;2023-06-26T05:10:20;98088.66;;;20.45
79053;BMP280;68451;49.510;6.026;2023-06-26T05:12:46;98052.09;;;20.42
79053;BMP280;68451;49.510;6.026;2023-06-26T05:15:12;98114.09;;;20.70
79053;BMP280;68451;49.510;6.026;2023-06-26T05:17:38;98108.59;;;20.67
79053;BMP280;68451;49.510;6.026;2023-06-26T05:20:04;98124.53;;;20.85
79053;BMP280;68451;49.510;6.026;2023-06-26T05:22:32;98146.50;;;20.91
79053;BMP280;68451;49.510;6.026;2023-06-26T05:24:59;98136.63;;;20.73
79053;BMP280;68451;49.510;6.026;2023-06-26T05:27:26;98101.69;;;20.42
79053;BMP280;68451;49.510;6.026;2023-06-26T05:29:52;98146.31;;;20.59
79053;BMP280;68451;49.510;6.026;2023-06-26T05:32:17;98135.66;;;20.40
79053;BMP280;68451;49.510;6.026;2023-06-26T05:34:46;98166.88;;;20.72
79053;BMP280;68451;49.510;6.026;2023-06-26T05:37:14;98005.09;;;19.72
79053;BMP280;68451;49.510;6.026;2023-06-26T05:39:42;98155.53;;;21.14
79053;BMP280;68451;49.510;6.026;2023-06-26T05:42:08;98137.53;;;21.67
79053;BMP280;68451;49.510;6.026;2023-06-26T05:44:34;98000.88;;;21.03
79053;BMP280;68451;49.510;6.026;2023-06-26T05:46:59;98161.66;;;22.21
79053;BMP280;68451;49.510;6.026;2023-06-26T05:49:24;98160.03;;;21.88
79053;BMP280;68451;49.510;6.026;2023-06-26T05:51:50;97960.00;;;20.24
79053;BMP280;68451;49.510;6.026;2023-06-26T05:54:16;97973.53;;;20.04
79053;BMP280;68451;49.510;6.026;2023-06-26T05:56:42;98170.91;;;21.12
79053;BMP280;68451;49.510;6.026;2023-06-26T05:59:10;98149.19;;;20.86
79053;BMP280;68451;49.510;6.026;2023-06-26T06:01:36;98128.38;;;20.74
79053;BMP280;68451;49.510;6.026;2023-06-26T06:04:02;98152.66;;;20.86
79053;BMP280;68451;49.510;6.026;2023-06-26T06:06:27;98156.63;;;21.08
79053;BMP280;68451;49.510;6.026;2023-06-26T06:08:53;98182.31;;;21.36
79053;BMP280;68451;49.510;6.026;2023-06-26T06:11:19;98195.44;;;22.21
79053;BMP280;68451;49.510;6.026;2023-06-26T06:13:44;98135.81;;;23.09
79053;BMP280;68451;49.510;6.026;2023-06-26T06:16:09;98055.06;;;23.58
79053;BMP280;68451;49.510;6.026;2023-06-26T06:18:35;98179.56;;;25.34
79053;BMP280;68451;49.510;6.026;2023-06-26T06:21:00;98190.44;;;26.15
79053;BMP280;68451;49.510;6.026;2023-06-26T06:23:27;98191.56;;;26.78
79053;BMP280;68451;49.510;6.026;2023-06-26T06:25:52;98195.97;;;27.49
79053;BMP280;68451;49.510;6.026;2023-06-26T06:28:18;98182.31;;;28.17
79053;BMP280;68451;49.510;6.026;2023-06-26T06:30:43;98176.25;;;28.65
79053;BMP280;68451;49.510;6.026;2023-06-26T06:33:09;98161.28;;;28.88
79053;BMP280;68451;49.510;6.026;2023-06-26T06:35:34;98155.66;;;29.42
79053;BMP280;68451;49.510;6.026;2023-06-26T06:38:00;98216.00;;;30.08
79053;BMP280;68451;49.510;6.026;2023-06-26T06:40:25;98100.97;;;29.65
79053;BMP280;68451;49.510;6.026;2023-06-26T06:42:51;98201.00;;;30.82
79053;BMP280;68451;49.510;6.026;2023-06-26T06:45:19;98190.88;;;31.26
79053;BMP280;68451;49.510;6.026;2023-06-26T06:47:45;98217.31;;;31.71
79053;BMP280;68451;49.510;6.026;2023-06-26T06:50:12;98178.25;;;31.84
79053;BMP280;68451;49.510;6.026;2023-06-26T06:52:42;98204.31;;;31.96
79053;BMP280;68451;49.510;6.026;2023-06-26T06:55:08;98222.38;;;32.11
79053;BMP280;68451;49.510;6.026;2023-06-26T06:57:38;98218.88;;;32.30
79053;BMP280;68451;49.510;6.026;2023-06-26T07:00:10;98197.09;;;32.42
79053;BMP280;68451;49.510;6.026;2023-06-26T07:02:38;98157.22;;;32.13
79053;BMP280;68451;49.510;6.026;2023-06-26T07:05:04;98191.22;;;32.36
79053;BMP280;68451;49.510;6.026;2023-06-26T07:07:34;98239.53;;;32.83
79053;BMP280;68451;49.510;6.026;2023-06-26T07:10:02;98239.09;;;32.59
79053;BMP280;68451;49.510;6.026;2023-06-26T07:12:28;98051.53;;;31.34
79053;BMP280;68451;49.510;6.026;2023-06-26T07:14:55;98132.84;;;32.32
79053;BMP280;68451;49.510;6.026;2023-06-26T07:17:21;98153.94;;;32.68
79053;BMP280;68451;49.510;6.026;2023-06-26T07:19:47;98218.16;;;33.50
79053;BMP280;68451;49.510;6.026;2023-06-26T07:22:12;98231.75;;;33.57
79053;BMP280;68451;49.510;6.026;2023-06-26T07:24:38;98223.69;;;33.87
79053;BMP280;68451;49.510;6.026;2023-06-26T07:27:03;98203.03;;;34.09
79053;BMP280;68451;49.510;6.026;2023-06-26T07:29:29;98214.16;;;34.34
79053;BMP280;68451;49.510;6.026;2023-06-26T07:31:54;98245.03;;;34.63
79053;BMP280;68451;49.510;6.026;2023-06-26T07:34:20;98241.56;;;34.25
79053;BMP280;68451;49.510;6.026;2023-06-26T07:36:45;98213.84;;;34.05
79053;BMP280;68451;49.510;6.026;2023-06-26T07:39:11;98216.84;;;34.30
79053;BMP280;68451;49.510;6.026;2023-06-26T07:41:36;98248.09;;;34.61
79053;BMP280;68451;49.510;6.026;2023-06-26T07:44:02;98225.91;;;34.45
79053;BMP280;68451;49.510;6.026;2023-06-26T07:46:27;98217.44;;;34.53
79053;BMP280;68451;49.510;6.026;2023-06-26T07:48:53;98223.47;;;34.33
79053;BMP280;68451;49.510;6.026;2023-06-26T07:51:19;98209.53;;;33.71
79053;BMP280;68451;49.510;6.026;2023-06-26T07:53:44;98234.94;;;33.63
79053;BMP280;68451;49.510;6.026;2023-06-26T07:56:11;98109.28;;;32.78
79053;BMP280;68451;49.510;6.026;2023-06-26T07:58:37;98239.81;;;33.24
79053;BMP280;68451;49.510;6.026;2023-06-26T08:01:03;98251.56;;;33.35
79053;BMP280;68451;49.510;6.026;2023-06-26T08:03:28;98252.53;;;33.76
79053;BMP280;68451;49.510;6.026;2023-06-26T08:05:54;98260.41;;;33.58
79053;BMP280;68451;49.510;6.026;2023-06-26T08:08:19;98222.75;;;33.46
79053;BMP280;68451;49.510;6.026;2023-06-26T08:10:45;98274.25;;;33.53
79053;BMP280;68451;49.510;6.026;2023-06-26T08:13:11;98259.25;;;33.07
79053;BMP280;68451;49.510;6.026;2023-06-26T08:15:37;98279.25;;;32.60
79053;BMP280;68451;49.510;6.026;2023-06-26T08:18:03;98190.59;;;31.31
79053;BMP280;68451;49.510;6.026;2023-06-26T08:20:28;98284.28;;;32.20
79053;BMP280;68451;49.510;6.026;2023-06-26T08:22:54;98277.50;;;32.68
79053;BMP280;68451;49.510;6.026;2023-06-26T08:25:20;98176.72;;;32.06
79053;BMP280;68451;49.510;6.026;2023-06-26T08:27:46;98288.13;;;31.84
79053;BMP280;68451;49.510;6.026;2023-06-26T08:30:13;98251.84;;;31.46
79053;BMP280;68451;49.510;6.026;2023-06-26T08:32:40;98269.47;;;31.94
79053;BMP280;68451;49.510;6.026;2023-06-26T08:35:06;98258.13;;;32.24
79053;BMP280;68451;49.510;6.026;2023-06-26T08:37:32;98287.41;;;33.06
79053;BMP280;68451;49.510;6.026;2023-06-26T08:39:59;98255.53;;;33.41
79053;BMP280;68451;49.510;6.026;2023-06-26T08:42:24;98210.13;;;33.05
79053;BMP280;68451;49.510;6.026;2023-06-26T08:44:50;98280.25;;;33.40
79053;BMP280;68451;49.510;6.026;2023-06-26T08:47:16;98109.25;;;32.29
79053;BMP280;68451;49.510;6.026;2023-06-26T08:49:56;98296.41;;;33.62
79053;BMP280;68451;49.510;6.026;2023-06-26T08:52:30;98276.88;;;33.46
79053;BMP280;68451;49.510;6.026;2023-06-26T08:55:01;98119.94;;;32.67
79053;BMP280;68451;49.510;6.026;2023-06-26T08:57:28;98308.44;;;33.88
79053;BMP280;68451;49.510;6.026;2023-06-26T08:59:56;98255.25;;;33.50
79053;BMP280;68451;49.510;6.026;2023-06-26T09:02:22;98298.19;;;33.74
79053;BMP280;68451;49.510;6.026;2023-06-26T09:04:48;98303.28;;;33.79
79053;BMP280;68451;49.510;6.026;2023-06-26T09:07:16;98287.84;;;33.57
79053;BMP280;68451;49.510;6.026;2023-06-26T09:09:43;98296.47;;;33.40
79053;BMP280;68451;49.510;6.026;2023-06-26T09:12:08;98270.75;;;33.04
79053;BMP280;68451;49.510;6.026;2023-06-26T09:14:34;98270.31;;;32.98
79053;BMP280;68451;49.510;6.026;2023-06-26T09:17:00;98172.59;;;32.54
79053;BMP280;68451;49.510;6.026;2023-06-26T09:19:30;98262.34;;;33.32
79053;BMP280;68451;49.510;6.026;2023-06-26T09:21:58;98275.31;;;33.71
79053;BMP280;68451;49.510;6.026;2023-06-26T09:24:30;98277.44;;;33.85
79053;BMP280;68451;49.510;6.026;2023-06-26T09:26:58;98280.34;;;34.03
79053;BMP280;68451;49.510;6.026;2023-06-26T09:29:27;98281.00;;;34.19
79053;BMP280;68451;49.510;6.026;2023-06-26T09:31:56;98298.56;;;34.32
79053;BMP280;68451;49.510;6.026;2023-06-26T09:34:32;98278.97;;;34.16
79053;BMP280;68451;49.510;6.026;2023-06-26T09:37:01;98108.38;;;33.23
79053;BMP280;68451;49.510;6.026;2023-06-26T09:39:35;98278.69;;;34.25
79053;BMP280;68451;49.510;6.026;2023-06-26T09:42:00;98302.28;;;34.54
79053;BMP280;68451;49.510;6.026;2023-06-26T09:44:33;98293.19;;;34.39
79053;BMP280;68451;49.510;6.026;2023-06-26T09:47:01;98293.31;;;34.50
79053;BMP280;68451;49.510;6.026;2023-06-26T09:49:32;98304.09;;;34.46
79053;BMP280;68451;49.510;6.026;2023-06-26T09:52:00;98303.28;;;34.42
79053;BMP280;68451;49.510;6.026;2023-06-26T09:54:27;98302.81;;;34.03
79053;BMP280;68451;49.510;6.026;2023-06-26T09:56:56;98296.50;;;33.92
79053;BMP280;68451;49.510;6.026;2023-06-26T09:59:35;98266.13;;;33.80
79053;BMP280;68451;49.510;6.026;2023-06-26T10:02:00;98254.59;;;33.56
79053;BMP280;68451;49.510;6.026;2023-06-26T10:04:26;98292.41;;;34.05
79053;BMP280;68451;49.510;6.026;2023-06-26T10:06:57;98225.97;;;33.55
79053;BMP280;68451;49.510;6.026;2023-06-26T10:09:25;98269.44;;;33.96
79053;BMP280;68451;49.510;6.026;2023-06-26T10:12:06;98283.97;;;33.84
79053;BMP280;68451;49.510;6.026;2023-06-26T10:14:47;98281.47;;;33.68
79053;BMP280;68451;49.510;6.026;2023-06-26T10:17:16;98309.84;;;34.08
79053;BMP280;68451;49.510;6.026;2023-06-26T10:19:45;98307.88;;;34.05
79053;BMP280;68451;49.510;6.026;2023-06-26T10:22:17;98292.69;;;33.70
79053;BMP280;68451;49.510;6.026;2023-06-26T10:24:50;98321.06;;;33.80
79053;BMP280;68451;49.510;6.026;2023-06-26T10:27:19;98320.06;;;33.65
79053;BMP280;68451;49.510;6.026;2023-06-26T10:29:48;98187.00;;;32.62
79053;BMP280;68451;49.510;6.026;2023-06-26T10:32:15;98232.47;;;32.56
79053;BMP280;68451;49.510;6.026;2023-06-26T10:34:42;98320.59;;;32.80
79053;BMP280;68451;49.510;6.026;2023-06-26T10:37:08;98301.06;;;32.29
79053;BMP280;68451;49.510;6.026;2023-06-26T10:39:47;98286.56;;;32.18
79053;BMP280;68451;49.510;6.026;2023-06-26T10:42:15;98333.13;;;32.11
79053;BMP280;68451;49.510;6.026;2023-06-26T10:44:42;98301.91;;;31.79
79053;BMP280;68451;49.510;6.026;2023-06-26T10:47:09;98329.69;;;31.79
79053;BMP280;68451;49.510;6.026;2023-06-26T10:49:46;98239.19;;;31.16
79053;BMP280;68451;49.510;6.026;2023-06-26T10:52:12;98334.16;;;31.72
79053;BMP280;68451;49.510;6.026;2023-06-26T10:54:38;98346.28;;;31.62
79053;BMP280;68451;49.510;6.026;2023-06-26T10:57:03;98330.94;;;31.35
79053;BMP280;68451;49.510;6.026;2023-06-26T10:59:39;98336.22;;;31.00
79053;BMP280;68451;49.510;6.026;2023-06-26T11:02:06;98332.03;;;30.87
79053;BMP280;68451;49.510;6.026;2023-06-26T11:04:45;98331.31;;;30.74
79053;BMP280;68451;49.510;6.026;2023-06-26T11:07:20;98330.31;;;30.39
79053;BMP280;68451;49.510;6.026;2023-06-26T11:09:56;98304.84;;;29.96
79053;BMP280;68451;49.510;6.026;2023-06-26T11:12:38;98256.94;;;29.50
79053;BMP280;68451;49.510;6.026;2023-06-26T11:15:09;98328.88;;;29.77
79053;BMP280;68451;49.510;6.026;2023-06-26T11:17:36;98329.34;;;29.55
79053;BMP280;68451;49.510;6.026;2023-06-26T11:20:06;98339.75;;;29.44
79053;BMP280;68451;49.510;6.026;2023-06-26T11:22:35;98227.72;;;28.55
79053;BMP280;68451;49.510;6.026;2023-06-26T11:25:01;98356.97;;;29.19
79053;BMP280;68451;49.510;6.026;2023-06-26T11:27:39;98367.38;;;29.20
79053;BMP280;68451;49.510;6.026;2023-06-26T11:30:06;98327.97;;;28.79
79053;BMP280;68451;49.510;6.026;2023-06-26T11:32:32;98345.34;;;28.82
79053;BMP280;68451;49.510;6.026;2023-06-26T11:34:58;98287.91;;;28.54
79053;BMP280;68451;49.510;6.026;2023-06-26T11:37:25;98226.81;;;28.18
79053;BMP280;68451;49.510;6.026;2023-06-26T11:39:50;98346.22;;;28.74
79053;BMP280;68451;49.510;6.026;2023-06-26T11:42:17;98361.88;;;28.72
79053;BMP280;68451;49.510;6.026;2023-06-26T11:44:44;98368.97;;;28.56
79053;BMP280;68451;49.510;6.026;2023-06-26T11:47:20;98344.06;;;28.46
79053;BMP280;68451;49.510;6.026;2023-06-26T11:49:48;98371.69;;;28.68
79053;BMP280;68451;49.510;6.026;2023-06-26T11:52:15;98301.66;;;28.19
79053;BMP280;68451;49.510;6.026;2023-06-26T11:54:42;98371.91;;;28.42
79053;BMP280;68451;49.510;6.026;2023-06-26T11:57:08;98327.88;;;27.93
79053;BMP280;68451;49.510;6.026;2023-06-26T11:59:44;98338.59;;;27.93
79053;BMP280;68451;49.510;6.026;2023-06-26T12:02:12;98357.41;;;27.93
79053;BMP280;68451;49.510;6.026;2023-06-26T12:04:44;98385.59;;;27.99
79053;BMP280;68451;49.510;6.026;2023-06-26T12:07:13;98369.41;;;27.87
79053;BMP280;68451;49.510;6.026;2023-06-26T12:09:41;98252.69;;;27.22
79053;BMP280;68451;49.510;6.026;2023-06-26T12:12:09;98351.16;;;27.80
79053;BMP280;68451;49.510;6.026;2023-06-26T12:14:37;98368.78;;;27.90
79053;BMP280;68451;49.510;6.026;2023-06-26T12:17:08;98258.41;;;27.12
79053;BMP280;68451;49.510;6.026;2023-06-26T12:19:37;98360.53;;;27.66
79053;BMP280;68451;49.510;6.026;2023-06-26T12:22:06;98351.56;;;27.62
79053;BMP280;68451;49.510;6.026;2023-06-26T12:24:37;98268.69;;;27.01
79053;BMP280;68451;49.510;6.026;2023-06-26T12:27:08;98348.28;;;27.47
79053;BMP280;68451;49.510;6.026;2023-06-26T12:29:46;98377.13;;;27.68
79053;BMP280;68451;49.510;6.026;2023-06-26T12:32:15;98351.63;;;27.44
79053;BMP280;68451;49.510;6.026;2023-06-26T12:34:41;98318.03;;;27.09
79053;BMP280;68451;49.510;6.026;2023-06-26T12:37:08;98362.72;;;27.26
79053;BMP280;68451;49.510;6.026;2023-06-26T12:42:18;98326.44;;;26.90
79053;BMP280;68451;49.510;6.026;2023-06-26T12:44:44;98378.97;;;27.29
79053;BMP280;68451;49.510;6.026;2023-06-26T12:47:10;98359.81;;;26.93
79053;BMP280;68451;49.510;6.026;2023-06-26T12:49:41;98403.59;;;27.23
79053;BMP280;68451;49.510;6.026;2023-06-26T12:52:09;98379.94;;;27.16
79053;BMP280;68451;49.510;6.026;2023-06-26T12:54:40;98328.66;;;26.62
79053;BMP280;68451;49.510;6.026;2023-06-26T12:57:06;98390.84;;;27.11
79053;BMP280;68451;49.510;6.026;2023-06-26T12:59:38;98402.16;;;27.25
79053;BMP280;68451;49.510;6.026;2023-06-26T13:02:04;98405.97;;;27.15
79053;BMP280;68451;49.510;6.026;2023-06-26T13:04:30;98345.63;;;26.75
79053;BMP280;68451;49.510;6.026;2023-06-26T13:06:56;98387.25;;;26.90
79053;BMP280;68451;49.510;6.026;2023-06-26T13:09:22;98374.97;;;26.63
79053;BMP280;68451;49.510;6.026;2023-06-26T13:11:49;98374.66;;;26.64
79053;BMP280;68451;49.510;6.026;2023-06-26T13:14:16;98368.03;;;26.53
79053;BMP280;68451;49.510;6.026;2023-06-26T13:16:43;98398.75;;;26.82
79053;BMP280;68451;49.510;6.026;2023-06-26T13:19:09;98229.63;;;25.85
79053;BMP280;68451;49.510;6.026;2023-06-26T13:21:35;98357.31;;;26.70
79053;BMP280;68451;49.510;6.026;2023-06-26T13:24:01;98355.91;;;26.64
79053;BMP280;68451;49.510;6.026;2023-06-26T13:26:27;98401.88;;;26.84
79053;BMP280;68451;49.510;6.026;2023-06-26T13:28:54;98343.16;;;26.44
79053;BMP280;68451;49.510;6.026;2023-06-26T13:31:20;98275.91;;;25.85
79053;BMP280;68451;49.510;6.026;2023-06-26T13:33:46;98282.31;;;25.67
79053;BMP280;68451;49.510;6.026;2023-06-26T13:36:15;98379.19;;;26.29
79053;BMP280;68451;49.510;6.026;2023-06-26T13:38:42;98354.94;;;26.17
79053;BMP280;68451;49.510;6.026;2023-06-26T13:41:08;98352.91;;;26.23
79053;BMP280;68451;49.510;6.026;2023-06-26T13:43:33;98378.91;;;26.48
79053;BMP280;68451;49.510;6.026;2023-06-26T13:45:59;98378.44;;;26.46
79053;BMP280;68451;49.510;6.026;2023-06-26T13:48:25;98370.56;;;26.41
79053;BMP280;68451;49.510;6.026;2023-06-26T13:50:51;98350.09;;;26.28
79053;BMP280;68451;49.510;6.026;2023-06-26T13:53:16;98335.56;;;26.12
79053;BMP280;68451;49.510;6.026;2023-06-26T13:55:42;98388.03;;;26.39
79053;BMP280;68451;49.510;6.026;2023-06-26T13:58:09;98403.16;;;26.43
79053;BMP280;68451;49.510;6.026;2023-06-26T14:00:35;98399.53;;;26.31
79053;BMP280;68451;49.510;6.026;2023-06-26T14:03:02;98404.88;;;26.22
79053;BMP280;68451;49.510;6.026;2023-06-26T14:05:30;98395.19;;;26.04
79053;BMP280;68451;49.510;6.026;2023-06-26T14:07:56;98413.13;;;25.95
79053;BMP280;68451;49.510;6.026;2023-06-26T14:10:22;98394.69;;;25.84
79053;BMP280;68451;49.510;6.026;2023-06-26T14:12:48;98401.16;;;25.83